createdAt,value
2018-03-06T00:01:47.452Z,31.12
2018-03-06T00:04:19.066Z,30.92
2018-03-06T00:06:54.674Z,29.37
2018-03-06T00:09:25.857Z,58.55
2018-03-06T00:11:54.924Z,32.97
2018-03-06T00:14:24.673Z,31.40
2018-03-06T00:16:52.728Z,32.08
2018-03-06T00:19:21.621Z,31.12
2018-03-06T00:21:49.661Z,29.50
2018-03-06T00:24:21.237Z,31.92
2018-03-06T00:26:51.988Z,30.15
2018-03-06T00:29:22.033Z,31.92
2018-03-06T00:31:50.806Z,33.60
2018-03-06T00:34:19.617Z,32.30
2018-03-06T00:36:49.413Z,30.85
2018-03-06T00:39:17.457Z,30.83
2018-03-06T00:41:45.497Z,26.35
2018-03-06T00:44:13.556Z,31.87
2018-03-06T00:46:42.581Z,31.17
2018-03-06T00:49:10.608Z,31.65
2018-03-06T00:51:38.673Z,31.02
2018-03-06T00:54:08.649Z,33.95
2018-03-06T00:56:39.369Z,30.62
2018-03-06T00:59:09.381Z,32.97
2018-03-06T01:01:37.393Z,31.83
2018-03-06T01:04:05.440Z,30.88
2018-03-06T01:06:35.244Z,35.30
2018-03-06T01:09:03.304Z,31.80
2018-03-06T01:11:34.337Z,31.60
2018-03-06T01:14:02.381Z,35.72
2018-03-06T01:16:31.173Z,31.40
2018-03-06T01:18:59.197Z,35.40
2018-03-06T01:21:28.001Z,32.00
2018-03-06T01:23:56.028Z,32.47
2018-03-06T01:26:25.045Z,34.58
2018-03-06T01:28:58.941Z,32.63
2018-03-06T01:31:27.937Z,30.45
2018-03-06T01:33:55.965Z,33.80
2018-03-06T01:36:24.980Z,31.37
2018-03-06T01:38:58.584Z,32.15
2018-03-06T01:41:26.613Z,31.27
2018-03-06T01:43:54.637Z,32.22
2018-03-06T01:46:23.605Z,33.72
2018-03-06T01:48:52.632Z,31.23
2018-03-06T01:51:22.425Z,32.35
2018-03-06T01:53:50.433Z,30.98
2018-03-06T01:56:18.453Z,32.15
2018-03-06T01:58:47.461Z,29.08
2018-03-06T02:01:20.848Z,31.12
2018-03-06T02:03:54.125Z,31.08
2018-03-06T02:06:25.576Z,31.33
2018-03-06T02:08:58.797Z,26.42
2018-03-06T02:11:27.769Z,32.53
2018-03-06T02:13:56.768Z,32.45
2018-03-06T02:16:24.801Z,31.83
2018-03-06T02:18:53.812Z,35.03
2018-03-06T02:21:21.848Z,32.35
2018-03-06T02:23:49.873Z,32.53
2018-03-06T02:26:17.917Z,31.98
2018-03-06T02:28:46.932Z,33.03
2018-03-06T02:31:14.977Z,32.08
2018-03-06T02:33:42.989Z,31.15
2018-03-06T02:36:11.793Z,32.92
2018-03-06T02:38:40.740Z,30.35
2018-03-06T02:41:14.618Z,33.08
2018-03-06T02:43:45.409Z,32.80
2018-03-06T02:46:14.216Z,33.78
2018-03-06T02:48:42.248Z,33.15
2018-03-06T02:51:10.301Z,35.40
2018-03-06T02:53:39.308Z,31.48
2018-03-06T02:56:07.341Z,34.60
2018-03-06T02:58:36.372Z,35.83
2018-03-06T03:01:04.408Z,33.78
2018-03-06T03:03:32.453Z,31.75
2018-03-06T03:06:01.393Z,31.87
2018-03-06T03:08:31.428Z,32.60
2018-03-06T03:10:59.436Z,31.83
2018-03-06T03:13:29.409Z,33.20
2018-03-06T03:15:57.428Z,33.28
2018-03-06T03:18:27.373Z,30.27
2018-03-06T03:20:56.309Z,31.73
2018-03-06T03:23:26.085Z,33.65
2018-03-06T03:25:54.120Z,32.58
2018-03-06T03:28:22.140Z,34.55
2018-03-06T03:30:50.153Z,35.45
2018-03-06T03:33:21.744Z,35.10
2018-03-06T03:35:50.753Z,32.38
2018-03-06T03:38:19.956Z,34.78
2018-03-06T03:40:48.920Z,33.63
2018-03-06T03:43:16.948Z,34.15
2018-03-06T03:45:45.904Z,33.35
2018-03-06T03:48:13.944Z,33.58
2018-03-06T03:50:41.968Z,34.30
2018-03-06T03:53:11.945Z,33.17
2018-03-06T03:55:39.960Z,31.12
2018-03-06T03:58:18.624Z,32.22
2018-03-06T04:00:46.656Z,32.13
2018-03-06T04:03:15.616Z,31.83
2018-03-06T04:05:45.400Z,31.37
2018-03-06T04:08:16.856Z,34.95
2018-03-06T04:10:44.878Z,36.80
2018-03-06T04:13:13.829Z,34.35
2018-03-06T04:15:41.868Z,30.15
2018-03-06T04:18:09.916Z,35.10
2018-03-06T04:20:44.376Z,33.97
2018-03-06T04:23:12.404Z,33.70
2018-03-06T04:25:40.429Z,34.25
2018-03-06T04:28:13.937Z,36.42
2018-03-06T04:30:46.688Z,32.08
2018-03-06T04:33:14.704Z,34.75
2018-03-06T04:35:42.728Z,35.17
2018-03-06T04:38:14.189Z,34.90
2018-03-06T04:40:52.673Z,34.13
2018-03-06T04:43:20.729Z,33.05
2018-03-06T04:45:50.673Z,35.80
2018-03-06T04:48:18.708Z,33.22
2018-03-06T04:50:46.728Z,34.25
2018-03-06T04:53:14.753Z,35.35
2018-03-06T04:55:50.420Z,36.90
2018-03-06T04:58:18.432Z,36.95
2018-03-06T05:00:46.465Z,35.72
2018-03-06T05:03:14.502Z,37.80
2018-03-06T05:05:43.468Z,35.25
2018-03-06T05:08:12.272Z,33.47
2018-03-06T05:10:41.208Z,37.40
2018-03-06T05:13:14.920Z,35.15
2018-03-06T05:15:46.185Z,36.33
2018-03-06T05:18:15.046Z,35.40
2018-03-06T05:20:43.068Z,35.38
2018-03-06T05:23:11.089Z,35.80
2018-03-06T05:25:39.125Z,35.42
2018-03-06T05:28:07.128Z,35.50
2018-03-06T05:30:35.169Z,34.65
2018-03-06T05:33:03.979Z,35.35
2018-03-06T05:35:32.996Z,34.78
2018-03-06T05:38:01.008Z,35.78
2018-03-06T05:40:29.080Z,30.92
2018-03-06T05:42:57.104Z,38.42
2018-03-06T05:45:30.080Z,34.65
2018-03-06T05:48:09.472Z,35.85
2018-03-06T05:50:40.658Z,36.80
2018-03-06T05:53:12.808Z,39.78
2018-03-06T05:55:44.700Z,36.83
2018-03-06T05:58:18.648Z,38.78
2018-03-06T06:00:48.672Z,36.42
2018-03-06T06:03:18.589Z,38.47
2018-03-06T06:05:48.516Z,37.65
2018-03-06T06:08:29.844Z,35.92
2018-03-06T06:10:58.640Z,31.75
2018-03-06T06:13:32.253Z,35.10
2018-03-06T06:16:02.236Z,36.97
2018-03-06T06:18:31.200Z,35.72
2018-03-06T06:21:00.192Z,35.65
2018-03-06T06:23:28.208Z,37.55
2018-03-06T06:25:56.989Z,36.30
2018-03-06T06:28:25.780Z,36.53
2018-03-06T06:30:54.584Z,36.17
2018-03-06T06:33:23.516Z,36.45
2018-03-06T06:35:52.520Z,34.03
2018-03-06T06:38:20.556Z,36.40
2018-03-06T06:40:49.380Z,37.30
2018-03-06T06:43:17.404Z,37.75
2018-03-06T06:45:46.432Z,36.28
2018-03-06T06:48:14.453Z,33.30
2018-03-06T06:50:42.491Z,37.38
2018-03-06T06:53:10.508Z,37.78
2018-03-06T06:55:45.972Z,35.75
2018-03-06T06:58:16.716Z,35.92
2018-03-06T07:00:52.872Z,33.00
2018-03-06T07:03:22.895Z,33.78
2018-03-06T07:05:51.899Z,31.55
2018-03-06T07:08:21.908Z,37.28
2018-03-06T07:10:53.155Z,32.08
2018-03-06T07:13:21.168Z,33.85
2018-03-06T07:15:56.024Z,31.65
2018-03-06T07:18:35.927Z,32.10
2018-03-06T07:21:04.736Z,32.30
2018-03-06T07:23:37.679Z,33.05
2018-03-06T07:26:06.679Z,33.63
2018-03-06T07:28:35.648Z,31.95
2018-03-06T07:31:07.304Z,31.35
2018-03-06T07:33:36.280Z,33.15
2018-03-06T07:36:10.688Z,34.00
2018-03-06T07:38:40.628Z,33.05
2018-03-06T07:41:13.004Z,36.05
2018-03-06T07:43:44.764Z,34.85
2018-03-06T07:46:14.801Z,33.10
2018-03-06T07:48:47.347Z,33.95
2018-03-06T07:51:15.356Z,32.45
2018-03-06T07:53:47.289Z,31.83
2018-03-06T07:56:15.320Z,29.45
2018-03-06T07:58:44.342Z,30.37
2018-03-06T08:01:12.356Z,30.80
2018-03-06T08:03:45.595Z,30.58
2018-03-06T08:06:14.595Z,30.75
2018-03-06T08:08:53.188Z,29.48
2018-03-06T08:11:22.216Z,31.92
2018-03-06T08:13:50.244Z,29.48
2018-03-06T08:16:18.255Z,32.22
2018-03-06T08:18:46.275Z,30.95
2018-03-06T08:21:19.796Z,32.83
2018-03-06T08:23:53.623Z,33.72
2018-03-06T08:26:21.625Z,32.38
2018-03-06T08:28:54.716Z,30.42
2018-03-06T08:31:34.592Z,32.35
2018-03-06T08:34:04.224Z,32.22
2018-03-06T08:36:32.235Z,34.47
2018-03-06T08:39:03.976Z,31.77
2018-03-06T08:41:32.939Z,31.25
2018-03-06T08:44:00.958Z,33.88
2018-03-06T08:46:29.979Z,30.45
2018-03-06T08:49:03.521Z,32.47
2018-03-06T08:51:32.496Z,32.08
2018-03-06T08:54:01.524Z,31.12
2018-03-06T08:56:29.527Z,31.95
2018-03-06T08:58:57.532Z,31.17
2018-03-06T09:01:42.943Z,34.25
2018-03-06T09:04:11.732Z,29.73
2018-03-06T09:06:41.512Z,31.87
2018-03-06T09:09:20.095Z,33.90
2018-03-06T09:11:49.031Z,31.77
2018-03-06T09:14:18.008Z,29.90
2018-03-06T09:16:47.003Z,31.20
2018-03-06T09:19:26.721Z,33.47
2018-03-06T09:21:54.723Z,32.65
2018-03-06T09:24:22.775Z,33.58
2018-03-06T09:26:59.931Z,32.05
2018-03-06T09:29:31.523Z,31.98
2018-03-06T09:32:00.427Z,32.03
2018-03-06T09:34:36.330Z,31.62
2018-03-06T09:37:04.348Z,32.75
2018-03-06T09:39:33.328Z,28.70
2018-03-06T09:42:02.231Z,31.50
2018-03-06T09:44:30.265Z,32.03
2018-03-06T09:46:59.284Z,31.33
2018-03-06T09:49:27.307Z,34.55
2018-03-06T09:52:02.695Z,35.95
2018-03-06T09:54:30.760Z,33.33
2018-03-06T09:56:58.763Z,35.30
2018-03-06T09:59:28.532Z,35.78
2018-03-06T10:02:01.000Z,36.85
2018-03-06T10:04:29.391Z,35.92
2018-03-06T10:07:00.931Z,37.55
2018-03-06T10:09:35.627Z,37.85
2018-03-06T10:12:03.638Z,39.22
2018-03-06T10:14:33.651Z,36.10
2018-03-06T10:17:02.650Z,34.67
2018-03-06T10:19:32.667Z,36.00
2018-03-06T10:22:01.659Z,37.70
2018-03-06T10:24:40.687Z,33.95
2018-03-06T10:27:12.235Z,36.03
2018-03-06T10:29:40.239Z,34.67
2018-03-06T10:32:10.939Z,37.42
2018-03-06T10:34:38.955Z,36.72
2018-03-06T10:37:11.063Z,34.60
2018-03-06T10:39:39.096Z,35.55
2018-03-06T10:42:07.990Z,37.25
2018-03-06T10:44:36.003Z,38.63
2018-03-06T10:47:04.070Z,37.13
2018-03-06T10:49:32.967Z,37.67
2018-03-06T10:52:01.950Z,38.72
2018-03-06T10:54:33.099Z,37.50
2018-03-06T10:57:03.134Z,40.20
2018-03-06T10:59:31.154Z,38.78
2018-03-06T11:02:10.025Z,40.63
2018-03-06T11:04:39.935Z,38.47
2018-03-06T11:07:07.951Z,36.78
2018-03-06T11:09:36.879Z,35.22
2018-03-06T11:12:04.879Z,35.00
2018-03-06T11:14:32.891Z,35.63
2018-03-06T11:17:00.904Z,31.55
2018-03-06T11:19:28.915Z,33.78
2018-03-06T11:21:56.927Z,32.60
2018-03-06T11:24:24.932Z,33.22
2018-03-06T11:26:54.714Z,34.85
2018-03-06T11:29:22.735Z,35.03
2018-03-06T11:31:50.739Z,36.30
2018-03-06T11:34:19.643Z,34.72
2018-03-06T11:36:47.647Z,35.17
2018-03-06T11:39:17.318Z,33.80
2018-03-06T11:41:45.323Z,34.38
2018-03-06T11:44:14.119Z,36.60
2018-03-06T11:46:42.131Z,36.10
2018-03-06T11:49:11.127Z,34.15
2018-03-06T11:51:39.139Z,37.25
2018-03-06T11:54:08.919Z,36.47
2018-03-06T11:56:37.916Z,35.75
2018-03-06T11:59:05.930Z,35.63
2018-03-06T12:01:35.901Z,39.13
2018-03-06T12:04:04.591Z,36.45
2018-03-06T12:06:32.594Z,35.53
2018-03-06T12:09:00.647Z,34.88
2018-03-06T12:11:29.438Z,36.33
2018-03-06T12:13:59.235Z,36.08
2018-03-06T12:16:30.035Z,37.17
2018-03-06T12:18:59.183Z,36.78
2018-03-06T12:21:27.961Z,34.13
2018-03-06T12:23:56.751Z,36.75
2018-03-06T12:26:29.664Z,37.05
2018-03-06T12:28:57.687Z,38.13
2018-03-06T12:31:25.694Z,36.38
2018-03-06T12:33:53.693Z,40.15
2018-03-06T12:36:25.281Z,37.60
2018-03-06T12:38:53.291Z,38.40
2018-03-06T12:41:24.473Z,39.30
2018-03-06T12:43:54.495Z,38.85
2018-03-06T12:46:26.347Z,36.25
2018-03-06T12:48:55.358Z,37.45
2018-03-06T12:51:24.322Z,37.35
2018-03-06T12:53:59.047Z,35.38
2018-03-06T12:56:32.827Z,37.30
2018-03-06T12:59:02.787Z,38.13
2018-03-06T13:04:24.827Z,36.67
2018-03-06T13:06:53.731Z,36.58
2018-03-06T13:09:21.747Z,35.45
2018-03-06T13:11:49.767Z,38.28
2018-03-06T13:14:18.754Z,36.08
2018-03-06T13:16:51.411Z,38.10
2018-03-06T13:19:19.418Z,34.17
2018-03-06T13:21:49.226Z,37.53
2018-03-06T13:24:17.250Z,34.47
2018-03-06T13:26:45.266Z,36.60
2018-03-06T13:29:17.094Z,37.72
2018-03-06T13:31:45.118Z,35.85
2018-03-06T13:34:13.159Z,37.75
2018-03-06T13:36:41.172Z,39.45
2018-03-06T13:39:11.306Z,36.95
2018-03-06T13:41:40.315Z,39.42
2018-03-06T13:44:18.911Z,38.00
2018-03-06T13:46:48.870Z,38.25
2018-03-06T13:49:17.851Z,35.50
2018-03-06T13:51:45.886Z,37.80
2018-03-06T13:54:17.274Z,39.13
2018-03-06T13:56:54.195Z,37.50
2018-03-06T13:59:22.246Z,40.25
2018-03-06T14:01:50.239Z,39.05
2018-03-06T14:04:19.171Z,40.38
2018-03-06T14:06:48.171Z,40.80
2018-03-06T14:09:16.190Z,37.88
2018-03-06T14:11:44.194Z,37.45
2018-03-06T14:14:13.115Z,39.05
2018-03-06T14:16:47.603Z,40.65
2018-03-06T14:19:18.889Z,38.83
2018-03-06T14:21:47.796Z,40.05
2018-03-06T14:24:20.615Z,40.38
2018-03-06T14:26:56.155Z,41.85
2018-03-06T14:29:29.232Z,38.78
2018-03-06T14:31:58.159Z,40.83
2018-03-06T14:34:26.160Z,39.20
2018-03-06T14:36:57.889Z,39.42
2018-03-06T14:39:25.897Z,40.35
2018-03-06T14:41:54.674Z,39.55
2018-03-06T14:44:43.451Z,37.83
2018-03-06T14:47:12.379Z,40.63
2018-03-06T14:49:40.387Z,38.80
2018-03-06T14:52:12.512Z,41.20
2018-03-06T14:54:46.395Z,38.97
2018-03-06T14:57:19.422Z,39.75
2018-03-06T14:59:59.811Z,43.25
2018-03-06T15:02:29.590Z,42.30
2018-03-06T15:04:57.605Z,40.58
2018-03-06T15:07:29.434Z,43.28
2018-03-06T15:09:59.422Z,44.88
2018-03-06T15:12:29.462Z,46.97
2018-03-06T15:15:01.986Z,45.92
2018-03-06T15:17:30.910Z,47.05
2018-03-06T15:20:03.586Z,43.67
2018-03-06T15:22:32.603Z,43.67
2018-03-06T15:25:02.599Z,44.22
2018-03-06T15:27:43.951Z,42.92
2018-03-06T15:30:24.485Z,45.72
2018-03-06T15:32:54.323Z,44.53
2018-03-06T15:35:22.334Z,46.53
2018-03-06T15:37:51.242Z,46.30
2018-03-06T15:40:27.333Z,46.17
2018-03-06T15:43:07.979Z,48.40
2018-03-06T15:45:43.807Z,46.50
2018-03-06T15:48:11.835Z,48.72
2018-03-06T15:50:41.774Z,51.05
2018-03-06T15:53:09.794Z,49.20
2018-03-06T15:55:43.638Z,51.22
2018-03-06T15:58:13.584Z,48.40
2018-03-06T16:00:45.942Z,48.72
2018-03-06T16:03:26.579Z,52.17
2018-03-06T16:05:55.487Z,48.95
2018-03-06T16:08:24.483Z,51.50
2018-03-06T16:10:52.518Z,56.72
2018-03-06T16:13:28.339Z,55.42
2018-03-06T16:16:01.817Z,53.30
2018-03-06T16:18:32.826Z,52.65
2018-03-06T16:21:01.846Z,54.65
2018-03-06T16:23:29.854Z,54.17
2018-03-06T16:25:57.878Z,51.53
2018-03-06T16:28:25.882Z,51.67
2018-03-06T16:30:54.671Z,49.40
2018-03-06T16:33:24.648Z,53.58
2018-03-06T16:35:52.937Z,50.22
2018-03-06T16:38:20.959Z,50.03
2018-03-06T16:40:53.719Z,50.08
2018-03-06T16:43:24.415Z,49.35
2018-03-06T16:45:52.428Z,45.55
2018-03-06T16:48:25.563Z,45.25
2018-03-06T16:50:59.567Z,49.13
2018-03-06T16:53:30.771Z,53.40
2018-03-06T16:55:59.713Z,50.55
2018-03-06T16:58:33.398Z,49.65
2018-03-06T17:01:01.454Z,47.60
2018-03-06T17:03:33.539Z,46.47
2018-03-06T17:06:01.554Z,48.90
2018-03-06T17:08:36.306Z,52.13
2018-03-06T17:11:07.487Z,49.38
2018-03-06T17:13:36.518Z,52.78
2018-03-06T17:16:05.282Z,50.00
2018-03-06T17:18:34.254Z,52.65
2018-03-06T17:21:02.262Z,55.53
2018-03-06T17:23:33.069Z,58.33
2018-03-06T17:26:01.974Z,55.47
2018-03-06T17:28:29.990Z,53.75
2018-03-06T17:31:01.167Z,53.33
2018-03-06T17:33:29.190Z,56.35
2018-03-06T17:35:57.202Z,50.90
2018-03-06T17:38:25.218Z,48.05
2018-03-06T17:40:53.994Z,51.78
2018-03-06T17:43:22.954Z,50.28
2018-03-06T17:45:52.990Z,48.60
2018-03-06T17:48:21.959Z,51.85
2018-03-06T17:50:54.158Z,51.25
2018-03-06T17:53:23.932Z,50.20
2018-03-06T17:55:52.938Z,53.33
2018-03-06T17:58:20.954Z,51.22
2018-03-06T18:00:49.966Z,50.28
2018-03-06T18:03:17.982Z,50.60
2018-03-06T18:05:46.914Z,52.30
2018-03-06T18:08:14.934Z,50.65
2018-03-06T18:10:43.907Z,50.80
2018-03-06T18:13:15.358Z,53.15
2018-03-06T18:15:46.070Z,48.20
2018-03-06T18:18:14.082Z,48.80
2018-03-06T18:20:42.090Z,52.60
2018-03-06T18:23:11.026Z,48.60
2018-03-06T18:25:39.446Z,51.90
2018-03-06T18:28:09.308Z,47.70
2018-03-06T18:30:37.339Z,52.28
2018-03-06T18:33:06.106Z,48.53
2018-03-06T18:35:38.534Z,48.85
2018-03-06T18:38:08.194Z,51.08
2018-03-06T18:40:37.970Z,49.63
2018-03-06T18:43:05.993Z,47.20
2018-03-06T18:45:35.941Z,50.80
2018-03-06T18:48:05.866Z,51.10
2018-03-06T18:50:45.770Z,50.17
2018-03-06T18:53:13.778Z,50.33
2018-03-06T18:55:41.809Z,49.63
2018-03-06T18:58:10.744Z,49.20
2018-03-06T19:03:48.042Z,48.33
2018-03-06T19:06:31.174Z,46.53
2018-03-06T19:09:00.531Z,44.58
2018-03-06T19:11:28.561Z,44.40
2018-03-06T19:13:57.558Z,46.45
2018-03-06T19:16:31.039Z,43.90
2018-03-06T19:19:01.051Z,45.65
2018-03-06T19:21:30.038Z,50.10
2018-03-06T19:23:58.953Z,46.97
2018-03-06T19:26:26.990Z,49.42
2018-03-06T19:28:55.010Z,48.95
2018-03-06T19:31:24.710Z,50.65
2018-03-06T19:33:54.497Z,50.47
2018-03-06T19:36:22.525Z,50.55
2018-03-06T19:38:55.550Z,54.05
2018-03-06T19:41:24.338Z,53.28
2018-03-06T19:43:52.338Z,52.33
2018-03-06T19:46:24.990Z,52.38
2018-03-06T19:48:53.030Z,51.78
2018-03-06T19:51:21.097Z,52.62
2018-03-06T19:53:56.918Z,52.90
2018-03-06T19:56:25.966Z,52.50
2018-03-06T19:58:54.966Z,53.33
2018-03-06T20:01:22.990Z,55.28
2018-03-06T20:03:51.941Z,53.95
2018-03-06T20:06:21.852Z,56.88
2018-03-06T20:08:49.858Z,59.58
2018-03-06T20:11:19.110Z,56.65
2018-03-06T20:13:47.130Z,55.70
2018-03-06T20:16:15.261Z,59.10
2018-03-06T20:18:43.282Z,57.13
2018-03-06T20:21:11.289Z,58.17
2018-03-06T20:23:41.306Z,59.85
2018-03-06T20:26:09.317Z,59.17
2018-03-06T20:28:39.281Z,67.47
2018-03-06T20:31:13.054Z,64.35
2018-03-06T20:33:42.974Z,64.62
2018-03-06T20:36:13.084Z,66.37
2018-03-06T20:38:49.557Z,71.32
2018-03-06T20:41:17.593Z,68.93
2018-03-06T20:43:46.361Z,64.55
2018-03-06T20:46:25.325Z,63.45
2018-03-06T20:48:53.334Z,66.35
2018-03-06T20:51:21.346Z,73.43
2018-03-06T20:53:57.766Z,67.87
2018-03-06T20:56:25.848Z,67.62
2018-03-06T20:58:57.089Z,67.00
2018-03-06T21:01:26.010Z,69.68
2018-03-06T21:03:56.001Z,73.78
2018-03-06T21:06:24.026Z,71.37
2018-03-06T21:08:52.334Z,72.78
2018-03-06T21:11:21.321Z,71.62
2018-03-06T21:13:49.354Z,69.35
2018-03-06T21:16:19.120Z,70.78
2018-03-06T21:18:47.136Z,72.65
2018-03-06T21:21:15.167Z,76.50
2018-03-06T21:23:44.150Z,74.20
2018-03-06T21:26:12.158Z,73.45
2018-03-06T21:28:40.962Z,76.03
2018-03-06T21:31:08.970Z,74.87
2018-03-06T21:33:36.998Z,76.47
2018-03-06T21:36:05.022Z,77.60
2018-03-06T21:38:35.046Z,75.60
2018-03-06T21:41:08.741Z,78.45
2018-03-06T21:43:39.470Z,75.90
2018-03-06T21:46:08.514Z,75.10
2018-03-06T21:48:37.442Z,76.32
2018-03-06T21:51:06.474Z,76.20
2018-03-06T21:53:34.502Z,75.30
2018-03-06T21:56:07.398Z,78.10
2018-03-06T21:58:35.501Z,77.70
2018-03-06T22:01:03.498Z,80.30
2018-03-06T22:03:31.534Z,78.47
2018-03-06T22:06:00.497Z,72.50
2018-03-06T22:08:30.405Z,72.82
2018-03-06T22:11:01.357Z,73.78
2018-03-06T22:13:29.378Z,81.28
2018-03-06T22:15:57.398Z,77.40
2018-03-06T22:18:30.213Z,73.22
2018-03-06T22:20:58.177Z,71.95
2018-03-06T22:23:26.954Z,74.97
2018-03-06T22:25:54.970Z,71.40
2018-03-06T22:28:23.998Z,70.37
2018-03-06T22:30:54.026Z,72.00
2018-03-06T22:33:22.990Z,69.12
2018-03-06T22:35:55.277Z,70.70
2018-03-06T22:38:23.300Z,69.57
2018-03-06T22:40:51.310Z,69.97
2018-03-06T22:43:19.354Z,67.62
2018-03-06T22:45:49.322Z,69.80
2018-03-06T22:48:19.090Z,72.12
2018-03-06T22:50:47.105Z,68.90
2018-03-06T22:53:17.793Z,73.53
2018-03-06T22:55:50.374Z,74.10
2018-03-06T22:58:24.177Z,72.68
2018-03-06T23:00:52.181Z,68.90
2018-03-06T23:03:21.969Z,74.65
2018-03-06T23:05:50.959Z,71.00
2018-03-06T23:08:26.465Z,73.95
2018-03-06T23:10:55.393Z,78.05
2018-03-06T23:13:23.409Z,75.55
2018-03-06T23:15:51.429Z,74.65
2018-03-06T23:18:21.446Z,74.95
2018-03-06T23:20:51.465Z,76.62
2018-03-06T23:23:20.362Z,73.50
2018-03-06T23:25:49.177Z,75.97
2018-03-06T23:28:17.994Z,72.00
2018-03-06T23:30:46.005Z,75.12
2018-03-06T23:33:18.589Z,75.37
2018-03-06T23:35:51.953Z,78.15
2018-03-06T23:38:21.886Z,70.95
2018-03-06T23:40:51.913Z,70.07
2018-03-06T23:43:19.921Z,77.50
2018-03-06T23:45:47.936Z,71.80
2018-03-06T23:48:20.201Z,69.15
2018-03-06T23:50:49.201Z,68.70
2018-03-06T23:53:22.606Z,70.90
2018-03-06T23:55:52.622Z,71.97
2018-03-06T23:58:21.629Z,72.03
